Conway, Kansas
Current Conditions -  °F | °C
As of 5:52 PM on Wednesday 26 Nov 2014 (Local Time) from KHUT Reporting Station
Overcast Overcast  
Wind Chill: 31°   Ceiling: 10000
Heat Index: 39°   Visibility: 10mi
Dew Point: 21°   Wind: 14mph
Humidity: 49%   Direction: 330°NNW
Pressure: 30.34"   Gusts: 21mph
Location:  38.4089°N, 97.6556°W
Report Text: KHUT 262352Z 33012G18KT 10SM OVC100 04/M06 A3034 RMK AO2 SLP275 T00391061 10078 20039 53035
Loading
Personal Weather Stations






























Interactive Weather Map New forecast layout! Learn more

10-Day Weather Forecast

Advertisements
Track Severe Weather on mobile